createdAt,value
2017-05-18T00:00:55.808Z,1011.99
2017-05-18T00:02:05.026Z,1011.93
2017-05-18T00:03:14.074Z,1011.97
2017-05-18T00:04:23.968Z,1011.92
2017-05-18T00:05:33.857Z,1011.9
2017-05-18T00:06:43.411Z,1011.87
2017-05-18T00:07:52.312Z,1011.89
2017-05-18T00:09:01.737Z,1011.89
2017-05-18T00:10:11.285Z,1011.86
2017-05-18T00:11:20.504Z,1011.85
2017-05-18T00:12:29.400Z,1011.79
2017-05-18T00:13:38.300Z,1011.78
2017-05-18T00:14:47.534Z,1011.77
2017-05-18T00:15:57.410Z,1011.73
2017-05-18T00:17:06.306Z,1011.73
2017-05-18T00:18:15.850Z,1011.69
2017-05-18T00:19:25.786Z,1011.68
2017-05-18T00:20:35.915Z,1011.66
2017-05-18T00:21:45.138Z,1011.61
2017-05-18T00:22:54.367Z,1011.61
2017-05-18T00:24:03.590Z,1011.58
2017-05-18T00:25:12.482Z,1011.6
2017-05-18T00:26:21.430Z,1011.55
2017-05-18T00:27:30.325Z,1011.6
2017-05-18T00:28:39.548Z,1011.58
2017-05-18T00:29:49.091Z,1011.54
2017-05-18T00:30:58.313Z,1011.53
2017-05-18T00:32:07.314Z,1011.49
2017-05-18T00:33:16.532Z,1011.54
2017-05-18T00:34:25.754Z,1011.49
2017-05-18T00:35:35.300Z,1011.47
2017-05-18T00:36:44.526Z,1011.48
2017-05-18T00:37:53.904Z,1011.44
2017-05-18T00:39:03.775Z,1011.44
2017-05-18T00:40:12.993Z,1011.43
2017-05-18T00:41:21.885Z,1011.43
2017-05-18T00:42:30.780Z,1011.41
2017-05-18T00:43:40.429Z,1011.38
2017-05-18T00:44:49.330Z,1011.36
2017-05-18T00:45:58.878Z,1011.36
2017-05-18T00:47:08.096Z,1011.34
2017-05-18T00:48:16.987Z,1011.36
2017-05-18T00:49:26.314Z,1011.38
2017-05-18T00:50:35.535Z,1011.33
2017-05-18T00:51:44.433Z,1011.31
2017-05-18T00:52:53.325Z,1011.33
2017-05-18T00:54:02.546Z,1011.27
2017-05-18T00:55:12.247Z,1011.28
2017-05-18T00:56:21.142Z,1011.26
2017-05-18T00:57:30.683Z,1011.27
2017-05-18T00:58:40.557Z,1011.26
2017-05-18T00:59:49.784Z,1011.24
2017-05-18T01:00:59.054Z,1011.21
2017-05-18T01:02:08.274Z,1011.19
2017-05-18T01:03:17.823Z,1011.16
2017-05-18T01:04:27.383Z,1011.2
2017-05-18T01:05:36.603Z,1011.16
2017-05-18T01:06:45.928Z,1011.14
2017-05-18T01:07:55.145Z,1011.12
2017-05-18T01:09:05.017Z,1011.18
2017-05-18T01:10:14.258Z,1011.15
2017-05-18T01:11:23.153Z,1011.1
2017-05-18T01:12:32.095Z,1011.09
2017-05-18T01:13:40.996Z,1011.1
2017-05-18T01:14:50.871Z,1011.02
2017-05-18T01:16:00.423Z,1011.02
2017-05-18T01:17:09.322Z,1011.01
2017-05-18T01:18:18.267Z,1011.01
2017-05-18T01:19:27.488Z,1011.02
2017-05-18T01:20:37.043Z,1010.96
2017-05-18T01:21:45.938Z,1010.96
2017-05-18T01:22:54.837Z,1010.95
2017-05-18T01:24:03.886Z,1010.94
2017-05-18T01:25:13.108Z,1010.94
2017-05-18T01:26:22.324Z,1010.94
2017-05-18T01:27:31.547Z,1010.93
2017-05-18T01:28:41.091Z,1010.9
2017-05-18T01:29:50.459Z,1010.92
2017-05-18T01:31:00.005Z,1010.85
2017-05-18T01:32:08.902Z,1010.82
2017-05-18T01:33:17.797Z,1010.82
2017-05-18T01:34:27.019Z,1010.81
2017-05-18T01:35:36.294Z,1010.79
2017-05-18T01:36:45.190Z,1010.81
2017-05-18T01:37:54.412Z,1010.8
2017-05-18T01:39:03.631Z,1010.84
2017-05-18T01:40:13.178Z,1010.77
2017-05-18T01:41:22.221Z,1010.8
2017-05-18T01:42:31.123Z,1010.77
2017-05-18T01:43:40.019Z,1010.78
2017-05-18T01:44:49.572Z,1010.77
2017-05-18T01:45:59.768Z,1010.81
2017-05-18T01:47:08.966Z,1010.8
2017-05-18T01:48:17.863Z,1010.73
2017-05-18T01:49:26.759Z,1010.73
2017-05-18T01:50:35.982Z,1010.75
2017-05-18T01:51:45.522Z,1010.75
2017-05-18T01:52:55.116Z,1010.68
2017-05-18T01:54:04.344Z,1010.73
2017-05-18T01:55:13.238Z,1010.7
2017-05-18T01:56:22.141Z,1010.69
2017-05-18T01:57:31.045Z,1010.67
2017-05-18T01:58:40.263Z,1010.67
2017-05-18T01:59:49.487Z,1010.65
2017-05-18T02:00:58.756Z,1010.65
2017-05-18T02:02:07.976Z,1010.7
2017-05-18T02:03:16.914Z,1010.7
2017-05-18T02:04:26.610Z,1010.63
2017-05-18T02:05:35.832Z,1010.64
2017-05-18T02:06:44.728Z,1010.61
2017-05-18T02:07:54.271Z,1010.63
2017-05-18T02:09:04.146Z,1010.61
2017-05-18T02:10:14.015Z,1010.6
2017-05-18T02:11:22.916Z,1010.58
2017-05-18T02:12:32.779Z,1010.56
2017-05-18T02:13:42.652Z,1010.53
2017-05-18T02:14:51.871Z,1010.55
2017-05-18T02:16:01.814Z,1010.49
2017-05-18T02:17:11.037Z,1010.46
2017-05-18T02:18:19.936Z,1010.49
2017-05-18T02:19:29.158Z,1010.46
2017-05-18T02:20:38.054Z,1010.44
2017-05-18T02:21:47.326Z,1010.43
2017-05-18T02:22:56.225Z,1010.42
2017-05-18T02:24:05.790Z,1010.46
2017-05-18T02:25:14.731Z,1010.43
2017-05-18T02:26:23.633Z,1010.4
2017-05-18T02:27:32.576Z,1010.42
2017-05-18T02:28:42.448Z,1010.41
2017-05-18T02:29:52.001Z,1010.38
2017-05-18T02:31:01.227Z,1010.4
2017-05-18T02:32:10.126Z,1010.35
2017-05-18T02:33:19.973Z,1010.39
2017-05-18T02:34:28.870Z,1010.29
2017-05-18T02:35:37.767Z,1010.34
2017-05-18T02:36:47.318Z,1010.31
2017-05-18T02:37:56.541Z,1010.27
2017-05-18T02:39:06.412Z,1010.27
2017-05-18T02:40:15.632Z,1010.26
2017-05-18T02:41:25.181Z,1010.21
2017-05-18T02:42:34.080Z,1010.22
2017-05-18T02:43:42.976Z,1010.23
2017-05-18T02:44:52.351Z,1010.22
2017-05-18T02:46:01.574Z,1010.26
2017-05-18T02:47:10.465Z,1010.19
2017-05-18T02:48:19.683Z,1010.24
2017-05-18T02:49:28.906Z,1010.2
2017-05-18T02:50:37.952Z,1010.14
2017-05-18T02:51:46.858Z,1010.2
2017-05-18T02:52:56.726Z,1010.14
2017-05-18T02:54:05.953Z,1010.15
2017-05-18T02:55:14.852Z,1010.15
2017-05-18T02:56:24.372Z,1010.18
2017-05-18T02:57:33.921Z,1010.16
2017-05-18T02:58:43.469Z,1010.16
2017-05-18T02:59:52.707Z,1010.14
2017-05-18T03:01:02.254Z,1010.13
2017-05-18T03:02:11.203Z,1010.09
2017-05-18T03:03:20.420Z,1010.13
2017-05-18T03:04:29.645Z,1010.09
2017-05-18T03:05:38.872Z,1010.11
2017-05-18T03:06:47.765Z,1010.11
2017-05-18T03:07:57.288Z,1010.1
2017-05-18T03:09:06.182Z,1010.08
2017-05-18T03:10:15.739Z,1010.09
2017-05-18T03:11:24.963Z,1010.08
2017-05-18T03:12:34.508Z,1010.08
2017-05-18T03:13:44.105Z,1010.05
2017-05-18T03:14:53.388Z,1010.06
2017-05-18T03:16:02.612Z,1010.05
2017-05-18T03:17:11.846Z,1010.02
2017-05-18T03:18:20.751Z,1010.03
2017-05-18T03:19:30.554Z,1010
2017-05-18T03:20:39.782Z,1010.01
2017-05-18T03:21:48.683Z,1010
2017-05-18T03:22:57.907Z,1010.06
2017-05-18T03:24:07.458Z,1009.99
2017-05-18T03:25:17.376Z,1009.97
2017-05-18T03:26:26.269Z,1009.97
2017-05-18T03:27:35.488Z,1009.94
2017-05-18T03:28:44.709Z,1009.95
2017-05-18T03:29:53.938Z,1009.95
2017-05-18T03:31:03.313Z,1009.91
2017-05-18T03:32:12.208Z,1009.97
2017-05-18T03:33:21.427Z,1009.97
2017-05-18T03:34:30.324Z,1009.92
2017-05-18T03:35:39.542Z,1009.92
2017-05-18T03:36:48.910Z,1009.91
2017-05-18T03:37:57.802Z,1009.89
2017-05-18T03:39:07.681Z,1009.91
2017-05-18T03:40:16.906Z,1009.9
2017-05-18T03:41:25.803Z,1009.93
2017-05-18T03:42:34.757Z,1009.91
2017-05-18T03:43:43.982Z,1009.87
2017-05-18T03:44:53.531Z,1009.87
2017-05-18T03:46:02.758Z,1009.81
2017-05-18T03:47:11.985Z,1009.89
2017-05-18T03:48:21.131Z,1009.93
2017-05-18T03:49:31.003Z,1009.9
2017-05-18T03:50:40.258Z,1009.91
2017-05-18T03:51:49.802Z,1009.92
2017-05-18T03:52:59.027Z,1009.9
2017-05-18T03:54:08.233Z,1009.88
2017-05-18T03:55:17.138Z,1009.92
2017-05-18T03:56:26.039Z,1009.88
2017-05-18T03:57:34.933Z,1009.89
2017-05-18T03:58:44.807Z,1009.86
2017-05-18T03:59:54.907Z,1009.86
2017-05-18T04:01:04.132Z,1009.85
2017-05-18T04:02:13.036Z,1009.85
2017-05-18T04:03:21.934Z,1009.81
2017-05-18T04:04:31.479Z,1009.79
2017-05-18T04:05:40.853Z,1009.81
2017-05-18T04:06:50.478Z,1009.81
2017-05-18T04:07:59.698Z,1009.82
2017-05-18T04:09:08.936Z,1009.84
2017-05-18T04:10:18.160Z,1009.79
2017-05-18T04:11:27.100Z,1009.78
2017-05-18T04:12:36.650Z,1009.81
2017-05-18T04:13:46.526Z,1009.81
2017-05-18T04:14:56.078Z,1009.77
2017-05-18T04:16:05.626Z,1009.75
2017-05-18T04:17:14.521Z,1009.81
2017-05-18T04:18:24.072Z,1009.81
2017-05-18T04:19:33.619Z,1009.8
2017-05-18T04:20:43.163Z,1009.75
2017-05-18T04:21:52.710Z,1009.78
2017-05-18T04:23:02.136Z,1009.8
2017-05-18T04:24:11.682Z,1009.79
2017-05-18T04:25:21.551Z,1009.74
2017-05-18T04:26:30.448Z,1009.79
2017-05-18T04:27:39.671Z,1009.79
2017-05-18T04:28:49.046Z,1009.82
2017-05-18T04:29:58.919Z,1009.79
2017-05-18T04:31:07.819Z,1009.84
2017-05-18T04:32:16.710Z,1009.84
2017-05-18T04:33:25.929Z,1009.87
2017-05-18T04:34:36.054Z,1009.89
2017-05-18T04:35:45.603Z,1009.89
2017-05-18T04:36:55.150Z,1009.91
2017-05-18T04:38:04.381Z,1009.92
2017-05-18T04:39:13.607Z,1009.91
2017-05-18T04:40:22.804Z,1009.89
2017-05-18T04:41:32.025Z,1009.94
2017-05-18T04:42:41.285Z,1009.91
2017-05-18T04:43:50.513Z,1009.9
2017-05-18T04:44:59.404Z,1009.92
2017-05-18T04:46:08.300Z,1009.93
2017-05-18T04:47:17.521Z,1009.91
2017-05-18T04:48:26.745Z,1009.91
2017-05-18T04:49:35.637Z,1009.96
2017-05-18T04:50:44.859Z,1009.94
2017-05-18T04:51:54.229Z,1009.93
2017-05-18T04:53:03.791Z,1009.94
2017-05-18T04:54:12.684Z,1009.97
2017-05-18T04:55:22.553Z,1009.95
2017-05-18T04:56:31.451Z,1009.97
2017-05-18T04:57:40.723Z,1009.95
2017-05-18T04:58:49.942Z,1009.98
2017-05-18T04:59:59.502Z,1009.93
2017-05-18T05:01:08.756Z,1009.94
2017-05-18T05:02:18.085Z,1009.92
2017-05-18T05:03:27.460Z,1009.92
2017-05-18T05:04:36.690Z,1009.96
2017-05-18T05:05:45.924Z,1009.97
2017-05-18T05:06:54.824Z,1009.97
2017-05-18T05:08:04.377Z,1009.99
2017-05-18T05:09:13.373Z,1009.98
2017-05-18T05:10:22.917Z,1010.01
2017-05-18T05:11:31.817Z,1010
2017-05-18T05:12:40.715Z,1010.02
2017-05-18T05:13:49.939Z,1010.01
2017-05-18T05:14:59.638Z,1009.99
2017-05-18T05:16:08.539Z,1010.02
2017-05-18T05:17:17.765Z,1010.02
2017-05-18T05:18:26.998Z,1010.02
2017-05-18T05:19:36.547Z,1010.07
2017-05-18T05:20:45.821Z,1010.04
2017-05-18T05:21:54.721Z,1010.05
2017-05-18T05:23:03.622Z,1010.03
2017-05-18T05:24:12.518Z,1010
2017-05-18T05:25:21.744Z,1010
2017-05-18T05:26:30.964Z,1010.03
2017-05-18T05:27:39.864Z,1010
2017-05-18T05:28:49.413Z,1010
2017-05-18T05:29:58.968Z,1010
2017-05-18T05:31:08.208Z,1009.99
2017-05-18T05:32:17.152Z,1010.02
2017-05-18T05:33:26.053Z,1010.02
2017-05-18T05:34:35.928Z,1010.02
2017-05-18T05:35:45.483Z,1010.01
2017-05-18T05:36:54.393Z,1010.03
2017-05-18T05:38:03.764Z,1010.02
2017-05-18T05:39:13.021Z,1010.03
2017-05-18T05:40:22.573Z,1010.03
2017-05-18T05:41:31.478Z,1010.06
2017-05-18T05:42:40.385Z,1010.12
2017-05-18T05:43:50.089Z,1010.09
2017-05-18T05:44:59.318Z,1010.13
2017-05-18T05:46:08.539Z,1010.07
2017-05-18T05:47:17.762Z,1010.11
2017-05-18T05:48:27.632Z,1010.12
2017-05-18T05:49:36.683Z,1010.09
2017-05-18T05:50:45.904Z,1010.12
2017-05-18T05:51:55.130Z,1010.05
2017-05-18T05:53:04.352Z,1010.07
2017-05-18T05:54:13.253Z,1010.07
2017-05-18T05:55:23.279Z,1010.11
2017-05-18T05:56:32.176Z,1010.05
2017-05-18T05:57:41.125Z,1010.06
2017-05-18T05:58:50.675Z,1010.06
2017-05-18T05:59:59.911Z,1010.12
2017-05-18T06:01:09.135Z,1010.13
2017-05-18T06:02:18.038Z,1010.15
2017-05-18T06:03:27.265Z,1010.13
2017-05-18T06:04:36.494Z,1010.14
2017-05-18T06:05:45.714Z,1010.15
2017-05-18T06:06:54.620Z,1010.15
2017-05-18T06:08:04.171Z,1010.16
2017-05-18T06:09:13.069Z,1010.14
2017-05-18T06:10:23.009Z,1010.14
2017-05-18T06:11:31.912Z,1010.05
2017-05-18T06:12:41.460Z,1010.09
2017-05-18T06:13:50.688Z,1010.15
2017-05-18T06:14:59.914Z,1010.1
2017-05-18T06:16:09.136Z,1010.11
2017-05-18T06:17:18.367Z,1010.1
2017-05-18T06:18:27.265Z,1010.09
2017-05-18T06:19:36.818Z,1010.16
2017-05-18T06:20:45.717Z,1010.11
2017-05-18T06:21:54.613Z,1010.13
2017-05-18T06:23:03.662Z,1010.18
2017-05-18T06:24:12.886Z,1010.19
2017-05-18T06:25:22.111Z,1010.19
2017-05-18T06:26:31.010Z,1010.21
2017-05-18T06:27:39.912Z,1010.23
2017-05-18T06:28:49.516Z,1010.2
2017-05-18T06:29:59.074Z,1010.2
2017-05-18T06:31:08.353Z,1010.2
2017-05-18T06:32:17.900Z,1010.22
2017-05-18T06:33:26.802Z,1010.25
2017-05-18T06:34:35.707Z,1010.24
2017-05-18T06:35:44.929Z,1010.25
2017-05-18T06:36:53.823Z,1010.24
2017-05-18T06:38:02.729Z,1010.27
2017-05-18T06:39:11.956Z,1010.24
2017-05-18T06:40:21.507Z,1010.27
2017-05-18T06:41:30.734Z,1010.31
2017-05-18T06:42:40.113Z,1010.31
2017-05-18T06:43:49.670Z,1010.29
2017-05-18T06:44:58.907Z,1010.33
2017-05-18T06:46:07.804Z,1010.35
2017-05-18T06:47:16.707Z,1010.36
2017-05-18T06:48:25.756Z,1010.38
2017-05-18T06:49:34.659Z,1010.38
2017-05-18T06:50:43.880Z,1010.34
2017-05-18T06:51:52.783Z,1010.41
2017-05-18T06:53:01.689Z,1010.37
2017-05-18T06:54:11.312Z,1010.37
2017-05-18T06:55:20.218Z,1010.42
2017-05-18T06:56:29.124Z,1010.39
2017-05-18T06:57:38.680Z,1010.37
2017-05-18T06:58:48.229Z,1010.39
2017-05-18T06:59:58.315Z,1010.4
2017-05-18T07:01:07.867Z,1010.43
2017-05-18T07:02:16.768Z,1010.44
2017-05-18T07:03:26.043Z,1010.43
2017-05-18T07:04:35.922Z,1010.5
2017-05-18T07:05:44.973Z,1010.48
2017-05-18T07:06:54.205Z,1010.48
2017-05-18T07:08:03.443Z,1010.47
2017-05-18T07:09:13.035Z,1010.41
2017-05-18T07:10:22.269Z,1010.45
2017-05-18T07:11:31.177Z,1010.45
2017-05-18T07:12:40.085Z,1010.48
2017-05-18T07:13:49.638Z,1010.44
2017-05-18T07:14:58.875Z,1010.5
2017-05-18T07:16:08.157Z,1010.48
2017-05-18T07:17:17.458Z,1010.54
2017-05-18T07:18:26.691Z,1010.48
2017-05-18T07:19:36.243Z,1010.51
2017-05-18T07:20:45.476Z,1010.52
2017-05-18T07:21:54.373Z,1010.49
2017-05-18T07:23:03.705Z,1010.51
2017-05-18T07:24:12.931Z,1010.55
2017-05-18T07:25:21.825Z,1010.54
2017-05-18T07:26:31.050Z,1010.53
2017-05-18T07:27:40.277Z,1010.58
2017-05-18T07:28:50.160Z,1010.57
2017-05-18T07:29:59.389Z,1010.56
2017-05-18T07:31:08.293Z,1010.55
2017-05-18T07:32:17.198Z,1010.57
2017-05-18T07:33:26.749Z,1010.59
2017-05-18T07:34:36.411Z,1010.55
2017-05-18T07:35:45.638Z,1010.66
2017-05-18T07:36:54.863Z,1010.64
2017-05-18T07:38:04.735Z,1010.67
2017-05-18T07:39:14.288Z,1010.67
2017-05-18T07:40:24.045Z,1010.72
2017-05-18T07:41:32.947Z,1010.75
2017-05-18T07:42:42.494Z,1010.72
2017-05-18T07:43:52.048Z,1010.73
2017-05-18T07:45:01.274Z,1010.78
2017-05-18T07:46:10.227Z,1010.76
2017-05-18T07:47:19.132Z,1010.81
2017-05-18T07:48:28.030Z,1010.79
2017-05-18T07:49:36.930Z,1010.8
2017-05-18T07:50:46.161Z,1010.79
2017-05-18T07:51:55.210Z,1010.82
2017-05-18T07:53:04.121Z,1010.85
2017-05-18T07:54:13.026Z,1010.83
2017-05-18T07:55:22.580Z,1010.85
2017-05-18T07:56:31.481Z,1010.82
2017-05-18T07:57:41.415Z,1010.88
2017-05-18T07:58:50.643Z,1010.88
2017-05-18T08:00:00.191Z,1010.91
2017-05-18T08:01:09.422Z,1010.89
2017-05-18T08:02:18.324Z,1010.92
2017-05-18T08:03:27.332Z,1010.91
2017-05-18T08:04:36.890Z,1010.93
2017-05-18T08:05:46.442Z,1010.91
2017-05-18T08:06:55.344Z,1010.98
2017-05-18T08:08:05.229Z,1011.01
2017-05-18T08:09:14.232Z,1011
2017-05-18T08:10:23.138Z,1011.03
2017-05-18T08:11:32.044Z,1011
2017-05-18T08:12:40.960Z,1011.04
2017-05-18T08:13:50.182Z,1011.03
2017-05-18T08:14:59.935Z,1010.99
2017-05-18T08:16:08.852Z,1011.01
2017-05-18T08:17:18.086Z,1011.03
2017-05-18T08:18:27.641Z,1011.02
2017-05-18T08:19:37.190Z,1011.03
2017-05-18T08:20:46.940Z,1011.03
2017-05-18T08:21:56.166Z,1011.08
2017-05-18T08:23:05.073Z,1011.06
2017-05-18T08:24:13.976Z,1011.04
2017-05-18T08:25:23.530Z,1011.06
2017-05-18T08:26:32.733Z,1011.09
2017-05-18T08:27:41.642Z,1011.09
2017-05-18T08:28:50.873Z,1011.07
2017-05-18T08:30:00.106Z,1011.06
2017-05-18T08:31:09.008Z,1011.04
2017-05-18T08:32:18.484Z,1011.01
2017-05-18T08:33:27.385Z,1011.06
2017-05-18T08:34:37.258Z,1011.08
2017-05-18T08:35:46.483Z,1011.06
2017-05-18T08:36:56.041Z,1011.11
2017-05-18T08:38:05.196Z,1011.1
2017-05-18T08:39:14.101Z,1011.09
2017-05-18T08:40:23.342Z,1011.1
2017-05-18T08:41:32.245Z,1011.1
2017-05-18T08:42:41.797Z,1011.11
2017-05-18T08:43:52.153Z,1011.14
2017-05-18T08:45:01.712Z,1011.1
2017-05-18T08:46:11.264Z,1011.12
2017-05-18T08:47:20.495Z,1011.09
2017-05-18T08:48:29.724Z,1011.19
2017-05-18T08:49:39.102Z,1011.18
2017-05-18T08:50:48.327Z,1011.16
2017-05-18T08:51:57.558Z,1011.16
2017-05-18T08:53:06.458Z,1011.13
2017-05-18T08:54:15.682Z,1011.14
2017-05-18T08:55:25.108Z,1011.16
2017-05-18T08:56:34.658Z,1011.14
2017-05-18T08:57:43.565Z,1011.16
2017-05-18T08:58:52.798Z,1011.15
2017-05-18T09:00:02.022Z,1011.19
2017-05-18T09:01:11.502Z,1011.24
2017-05-18T09:02:20.731Z,1011.25
2017-05-18T09:03:29.638Z,1011.34
2017-05-18T09:04:39.845Z,1011.29
2017-05-18T09:05:49.404Z,1011.3
2017-05-18T09:06:58.508Z,1011.33
2017-05-18T09:08:07.737Z,1011.28
2017-05-18T09:09:16.964Z,1011.28
2017-05-18T09:10:26.847Z,1011.32
2017-05-18T09:11:36.079Z,1011.37
2017-05-18T09:12:45.316Z,1011.35
2017-05-18T09:13:54.871Z,1011.36
2017-05-18T09:15:04.431Z,1011.35
2017-05-18T09:16:13.983Z,1011.44
2017-05-18T09:17:23.216Z,1011.4
2017-05-18T09:18:32.442Z,1011.4
2017-05-18T09:19:41.680Z,1011.45
2017-05-18T09:20:50.905Z,1011.5
2017-05-18T09:21:59.811Z,1011.48
2017-05-18T09:23:08.713Z,1011.49
2017-05-18T09:24:18.190Z,1011.52
2017-05-18T09:25:28.068Z,1011.57
2017-05-18T09:26:36.977Z,1011.54
2017-05-18T09:27:46.863Z,1011.54
2017-05-18T09:28:56.425Z,1011.6
2017-05-18T09:30:05.479Z,1011.56
2017-05-18T09:31:14.383Z,1011.55
2017-05-18T09:32:23.611Z,1011.6
2017-05-18T09:33:32.516Z,1011.6
2017-05-18T09:34:42.400Z,1011.6
2017-05-18T09:35:51.627Z,1011.6
2017-05-18T09:37:00.530Z,1011.58
2017-05-18T09:38:10.089Z,1011.61
2017-05-18T09:39:18.991Z,1011.63
2017-05-18T09:40:28.556Z,1011.62
2017-05-18T09:41:37.760Z,1011.62
2017-05-18T09:42:46.666Z,1011.63
2017-05-18T09:43:55.566Z,1011.65
2017-05-18T09:45:04.792Z,1011.64
2017-05-18T09:46:14.020Z,1011.67
2017-05-18T09:47:23.302Z,1011.68
2017-05-18T09:48:32.209Z,1011.66
2017-05-18T09:49:41.768Z,1011.64
2017-05-18T09:50:50.998Z,1011.63
2017-05-18T09:51:59.903Z,1011.6
2017-05-18T09:53:09.133Z,1011.63
2017-05-18T09:54:18.363Z,1011.6
2017-05-18T09:55:28.247Z,1011.58
2017-05-18T09:56:37.474Z,1011.59
2017-05-18T09:57:46.382Z,1011.62
2017-05-18T09:58:56.141Z,1011.65
2017-05-18T10:00:05.374Z,1011.59
2017-05-18T10:01:14.284Z,1011.66
2017-05-18T10:02:23.189Z,1011.67
2017-05-18T10:03:32.747Z,1011.71
2017-05-18T10:04:42.075Z,1011.78
2017-05-18T10:05:51.305Z,1011.74
2017-05-18T10:07:00.859Z,1011.77
2017-05-18T10:08:09.766Z,1011.8
2017-05-18T10:09:18.993Z,1011.83
2017-05-18T10:10:28.927Z,1011.82
2017-05-18T10:11:38.153Z,1011.8
2017-05-18T10:12:47.399Z,1011.81
2017-05-18T10:13:56.953Z,1011.8
2017-05-18T10:15:06.187Z,1011.83
2017-05-18T10:16:15.239Z,1011.82
2017-05-18T10:17:24.147Z,1011.82
2017-05-18T10:18:33.384Z,1011.82
2017-05-18T10:19:42.941Z,1011.79
2017-05-18T10:20:51.843Z,1011.82
2017-05-18T10:22:01.550Z,1011.78
2017-05-18T10:23:10.458Z,1011.78
2017-05-18T10:24:20.073Z,1011.82
2017-05-18T10:25:29.626Z,1011.92
2017-05-18T10:26:38.855Z,1011.84
2017-05-18T10:27:48.484Z,1011.9
2017-05-18T10:28:57.714Z,1011.86
2017-05-18T10:30:06.955Z,1011.87
2017-05-18T10:31:15.855Z,1011.89
2017-05-18T10:32:25.088Z,1011.85
2017-05-18T10:33:34.614Z,1011.89
2017-05-18T10:34:43.844Z,1011.84
2017-05-18T10:35:52.752Z,1011.87
2017-05-18T10:37:01.659Z,1011.84
2017-05-18T10:38:10.903Z,1011.88
2017-05-18T10:39:19.856Z,1011.95
2017-05-18T10:40:29.089Z,1011.97
2017-05-18T10:41:38.318Z,1011.97
2017-05-18T10:42:47.221Z,1012
2017-05-18T10:43:56.457Z,1012
2017-05-18T10:45:06.160Z,1012
2017-05-18T10:46:15.063Z,1011.99
2017-05-18T10:47:24.291Z,1012.02
2017-05-18T10:48:33.555Z,1012.04
2017-05-18T10:49:43.156Z,1012.04
2017-05-18T10:50:52.318Z,1012.01
2017-05-18T10:52:01.226Z,1012.01
2017-05-18T10:53:10.136Z,1012.05
2017-05-18T10:54:19.365Z,1012.04
2017-05-18T10:55:28.607Z,1012.06
2017-05-18T10:56:38.210Z,1012.08
2017-05-18T10:57:47.442Z,1012.09
2017-05-18T10:58:56.680Z,1012.07
2017-05-18T11:00:05.920Z,1012.15
2017-05-18T11:01:14.824Z,1012.21
2017-05-18T11:02:24.429Z,1012.21
2017-05-18T11:03:33.386Z,1012.2
2017-05-18T11:04:42.945Z,1012.18
2017-05-18T11:05:52.211Z,1012.16
2017-05-18T11:07:01.496Z,1012.25
2017-05-18T11:08:10.982Z,1012.21
2017-05-18T11:09:21.235Z,1012.19
2017-05-18T11:10:30.817Z,1012.26
2017-05-18T11:11:40.435Z,1012.16
2017-05-18T11:12:49.679Z,1012.21
2017-05-18T11:13:59.267Z,1012.25
2017-05-18T11:15:08.824Z,1012.29
2017-05-18T11:16:18.408Z,1012.29
2017-05-18T11:17:27.967Z,1012.3
2017-05-18T11:18:37.202Z,1012.29
2017-05-18T11:19:47.135Z,1012.26
2017-05-18T11:20:56.068Z,1012.24
2017-05-18T11:22:04.972Z,1012.19
2017-05-18T11:23:13.901Z,1012.22
2017-05-18T11:24:22.804Z,1012.22
2017-05-18T11:25:32.275Z,1012.27
2017-05-18T11:26:41.797Z,1012.24
2017-05-18T11:27:51.024Z,1012.23
2017-05-18T11:29:00.267Z,1012.19
2017-05-18T11:30:09.828Z,1012.23
2017-05-18T11:31:18.903Z,1012.21
2017-05-18T11:32:28.133Z,1012.29
2017-05-18T11:33:37.080Z,1012.25
2017-05-18T11:34:46.061Z,1012.25
2017-05-18T11:35:54.980Z,1012.25
2017-05-18T11:37:04.140Z,1012.26
2017-05-18T11:38:13.110Z,1012.26
2017-05-18T11:39:22.677Z,1012.31
2017-05-18T11:40:31.957Z,1012.3
2017-05-18T11:41:41.206Z,1012.26
2017-05-18T11:42:50.593Z,1012.23
2017-05-18T11:44:00.155Z,1012.24
2017-05-18T11:45:09.058Z,1012.27
2017-05-18T11:46:17.963Z,1012.25
2017-05-18T11:47:26.873Z,1012.31
2017-05-18T11:48:36.266Z,1012.33
2017-05-18T11:49:46.156Z,1012.4
2017-05-18T11:50:55.385Z,1012.35
2017-05-18T11:52:04.941Z,1012.32
2017-05-18T11:53:14.176Z,1012.44
2017-05-18T11:54:23.847Z,1012.38
2017-05-18T11:55:33.080Z,1012.4
2017-05-18T11:56:42.410Z,1012.37
2017-05-18T11:57:51.322Z,1012.39
2017-05-18T11:59:00.555Z,1012.39
2017-05-18T12:00:09.885Z,1012.42
2017-05-18T12:01:18.792Z,1012.28
2017-05-18T12:02:27.705Z,1012.32
2017-05-18T12:03:36.618Z,1012.33
2017-05-18T12:04:46.175Z,1012.37
2017-05-18T12:05:55.787Z,1012.38
2017-05-18T12:07:04.695Z,1012.39
2017-05-18T12:08:13.921Z,1012.39
2017-05-18T12:09:22.824Z,1012.43
2017-05-18T12:10:32.706Z,1012.43
2017-05-18T12:11:41.619Z,1012.46
2017-05-18T12:12:50.860Z,1012.48
2017-05-18T12:14:00.123Z,1012.55
2017-05-18T12:15:09.355Z,1012.56
2017-05-18T12:16:18.911Z,1012.56
2017-05-18T12:17:28.585Z,1012.56
2017-05-18T12:18:37.826Z,1012.57
2017-05-18T12:19:47.060Z,1012.55
2017-05-18T12:20:55.973Z,1012.54
2017-05-18T12:22:05.204Z,1012.57
2017-05-18T12:23:14.835Z,1012.6
2017-05-18T12:24:24.065Z,1012.55
2017-05-18T12:25:33.621Z,1012.61
2017-05-18T12:26:42.848Z,1012.61
2017-05-18T12:27:51.757Z,1012.58
2017-05-18T12:29:01.095Z,1012.63
2017-05-18T12:30:11.031Z,1012.64
2017-05-18T12:31:20.263Z,1012.66
2017-05-18T12:32:29.264Z,1012.69
2017-05-18T12:33:38.548Z,1012.74
2017-05-18T12:34:47.821Z,1012.74
2017-05-18T12:35:57.152Z,1012.66
2017-05-18T12:37:06.710Z,1012.67
2017-05-18T12:38:15.613Z,1012.66
2017-05-18T12:39:24.919Z,1012.75
2017-05-18T12:40:34.161Z,1012.72
2017-05-18T12:41:43.712Z,1012.77
2017-05-18T12:42:52.625Z,1012.79
2017-05-18T12:44:01.535Z,1012.84
2017-05-18T12:45:10.505Z,1012.82
2017-05-18T12:46:19.461Z,1012.82
2017-05-18T12:47:28.696Z,1012.84
2017-05-18T12:48:38.259Z,1012.91
2017-05-18T12:49:47.490Z,1012.95
2017-05-18T12:50:57.047Z,1012.91
2017-05-18T12:52:06.336Z,1013.01
2017-05-18T12:53:15.244Z,1012.92
2017-05-18T12:54:24.819Z,1012.92
2017-05-18T12:55:34.141Z,1012.87
2017-05-18T12:56:43.714Z,1012.89
2017-05-18T12:57:53.003Z,1012.94
2017-05-18T12:59:01.942Z,1012.9
2017-05-18T13:00:10.949Z,1012.96
2017-05-18T13:01:19.865Z,1012.99
2017-05-18T13:02:28.780Z,1012.92
2017-05-18T13:03:38.228Z,1012.93
2017-05-18T13:04:47.507Z,1012.93
2017-05-18T13:05:57.097Z,1012.92
2017-05-18T13:07:06.012Z,1012.89
2017-05-18T13:08:15.283Z,1012.93
2017-05-18T13:09:24.566Z,1012.93
2017-05-18T13:10:33.471Z,1012.92
2017-05-18T13:11:42.380Z,1012.93
2017-05-18T13:12:51.293Z,1013.01
2017-05-18T13:14:00.862Z,1013.01
2017-05-18T13:15:10.720Z,1012.96
2017-05-18T13:16:19.640Z,1013
2017-05-18T13:17:28.884Z,1012.95
2017-05-18T13:18:37.795Z,1013
2017-05-18T13:19:47.679Z,1013.02
2017-05-18T13:20:56.965Z,1013
2017-05-18T13:22:05.923Z,1013.06
2017-05-18T13:23:14.841Z,1013.07
2017-05-18T13:24:23.774Z,1013.13
2017-05-18T13:25:33.360Z,1012.99
2017-05-18T13:26:42.322Z,1013.03
2017-05-18T13:27:51.237Z,1012.97
2017-05-18T13:29:00.150Z,1012.94
2017-05-18T13:30:09.476Z,1012.92
2017-05-18T13:31:18.454Z,1012.93
2017-05-18T13:32:27.665Z,1013
2017-05-18T13:33:36.902Z,1012.97
2017-05-18T13:34:46.470Z,1012.95
2017-05-18T13:35:55.388Z,1012.94
2017-05-18T13:37:05.275Z,1012.93
2017-05-18T13:38:14.609Z,1012.92
2017-05-18T13:39:23.848Z,1012.93
2017-05-18T13:40:33.414Z,1012.99
2017-05-18T13:41:42.645Z,1012.98
2017-05-18T13:42:51.877Z,1012.97
2017-05-18T13:44:01.501Z,1012.95
2017-05-18T13:45:10.420Z,1013.01
2017-05-18T13:46:19.658Z,1013
2017-05-18T13:47:28.567Z,1013.06
2017-05-18T13:48:37.510Z,1013.08
2017-05-18T13:49:46.821Z,1013.1
2017-05-18T13:50:56.060Z,1013
2017-05-18T13:52:04.973Z,1013.04
2017-05-18T13:53:13.885Z,1013
2017-05-18T13:54:23.450Z,1012.98
2017-05-18T13:55:32.843Z,1012.95
2017-05-18T13:56:41.755Z,1012.97
2017-05-18T13:57:50.995Z,1012.96
2017-05-18T13:59:00.555Z,1012.88
2017-05-18T14:00:09.463Z,1012.9
2017-05-18T14:01:19.097Z,1012.91
2017-05-18T14:02:28.018Z,1012.94